Hauptseite
METAR-TAF:

METAR-TAF

Flughäfen :

Flughafen Bologna

Bologna, Italien

Breite: 44-32N, Länge: 011-18E, Höhe: 36 m

Beobachtung

Neuester Wetterbericht von vor 18 Minuten, um 10:50 UTC
Wind 2 kt aus unterschiedlichen Richtungen
Temperatur 27°C
Luftfeuchtigkeit 48%
Luftdruck 1018 hPa
Sichtweite 10 km oder mehr
keine Wolken unter 1500 m und keine Kumulonimbus oder Gewitterwolken

METAR: LIPE 231050Z VRB02KT CAVOK 27/15 Q1018

Zeit: 13:08 (11:08 UTC)

Prognose

Neuester Wetterbericht von vor 6 Stunden und 8 Minuten, um 05:00 UTC
Gültige Prognose vom 23 um 06 UTC bis 24 um 06 UTC
Wind 6 kt aus unterschiedlichen Richtungen
Sichtweite 10 km oder mehr
Aufgelockert bewölkt in der Höhe von 4000 ft
Zeitweise
vom 24 um 01 UTC bis 24 um 05 UTC
Sichtweite: 4000 m
feuchter Dunst

TAF: LIPE 230500Z 2306/2406 VRB06KT 9999 SCT040 TEMPO 2401/2405 4000 BR

Wetterbeobachtungen und Prognosen von mehr als 4000 Flughäfen (METAR und TAF Bericht).

Die verfügbaren Stationen werden durch gelbe und rote Markierungen auf der Karte dargestellt.

Führen Sie die Maus auf sie, um den Namen der Station zu sehen.

Darauf klicken, um die Beobachtung von Wetterbeobachtungen und Prognosen zu sehen.

Um die Karte zu ändern : klicken Sie auf den grünen Tasten mit einem schwarzen Kreuz Zum Vergrößern, auf den grünen Button mit einem Gedankenstrich zu verkleinern, oder auf die grünen Pfeile für benachbarte Karten.


METAR-TAF: